Time;durP1;ratioP1;P1;durP2;ratioP2;P2;SDS_P1;SDS_P2;PMS_P1;PMS_P2;Temp;Humidity;BMP_temperature;BMP_pressure;BME280_temperature;BME280_humidity;BME280_pressure;Samples;Min_cycle;Max_cycle;Signal;HPM_P1;HPM_P2
2022/07/16 00:03:32;;;;;;;6.25;2.50;;;;;;;15.99;69.98;101443.69;5030823;28;20028;-70
2022/07/16 00:05:58;;;;;;;6.55;1.70;;;;;;;16.01;69.96;101443.50;5027388;28;20021;-70
2022/07/16 00:08:23;;;;;;;3.90;1.45;;;;;;;15.99;70.02;101432.78;5032121;28;20102;-70
2022/07/16 00:10:50;;;;;;;5.97;1.85;;;;;;;15.88;69.85;101433.16;5031320;28;20045;-70
2022/07/16 00:13:15;;;;;;;7.95;2.40;;;;;;;15.97;69.89;101432.09;5035396;28;20041;-70
2022/07/16 00:15:40;;;;;;;7.93;2.10;;;;;;;16.01;70.40;101422.50;5036444;28;20033;-70
2022/07/16 00:20:50;;;;;;;5.05;1.75;;;;;;;15.91;70.31;101427.38;5034558;28;20029;-70
2022/07/16 00:23:16;;;;;;;4.68;1.58;;;;;;;15.89;70.58;101418.47;5032519;28;20027;-71
2022/07/16 00:25:41;;;;;;;4.60;2.25;;;;;;;16.00;69.81;101415.34;5038438;28;20051;-70
2022/07/16 00:28:07;;;;;;;8.02;2.13;;;;;;;15.83;70.93;101430.13;5027293;28;20026;-70
2022/07/16 00:30:33;;;;;;;10.40;2.00;;;;;;;15.85;70.36;101417.16;5029065;28;20497;-69
2022/07/16 00:32:58;;;;;;;9.07;2.28;;;;;;;15.80;70.32;101430.50;5029061;28;20025;-70
2022/07/16 00:35:24;;;;;;;11.80;3.03;;;;;;;15.43;73.45;101429.25;5031672;28;20036;-70
2022/07/16 00:37:49;;;;;;;10.77;2.97;;;;;;;15.19;75.75;101426.59;5037323;28;20029;-71
2022/07/16 00:40:15;;;;;;;8.77;3.50;;;;;;;14.77;77.88;101437.78;5031138;28;20028;-71
2022/07/16 00:42:40;;;;;;;9.13;3.53;;;;;;;14.68;78.90;101406.09;5033027;28;20021;-72
2022/07/16 00:45:07;;;;;;;7.63;3.88;;;;;;;14.55;79.19;101423.81;5038597;28;20028;-70
2022/07/16 00:47:33;;;;;;;6.55;3.13;;;;;;;14.56;79.19;101402.88;5031494;28;20033;-70
2022/07/16 00:49:58;;;;;;;10.38;3.75;;;;;;;14.68;79.58;101393.31;5037230;28;20573;-71
2022/07/16 00:52:24;;;;;;;17.42;3.38;;;;;;;14.51;80.11;101399.78;5032577;28;20020;-72
2022/07/16 00:54:49;;;;;;;8.43;3.60;;;;;;;14.39;80.47;101413.72;5031013;28;20418;-72
2022/07/16 00:57:15;;;;;;;11.60;4.80;;;;;;;14.55;80.97;101384.81;5035610;28;20033;-72
2022/07/16 00:59:40;;;;;;;11.80;4.60;;;;;;;14.46;81.46;101391.25;5032842;28;20052;-72
2022/07/16 01:02:06;;;;;;;13.23;4.25;;;;;;;14.46;82.09;101385.78;5029450;28;20104;-73
2022/07/16 01:04:31;;;;;;;11.23;4.95;;;;;;;14.48;82.27;101383.81;5027117;28;20098;-72
2022/07/16 01:06:57;;;;;;;18.25;5.07;;;;;;;14.62;80.92;101374.94;5028444;28;20024;-72
2022/07/16 01:09:25;;;;;;;18.30;4.40;;;;;;;14.61;81.29;101378.69;5034010;28;20081;-72
2022/07/16 01:11:51;;;;;;;7.43;4.43;;;;;;;14.49;80.33;101374.59;5031430;28;20017;-72
2022/07/16 01:14:18;;;;;;;15.50;4.32;;;;;;;14.47;81.37;101354.84;5030448;28;20025;-71
2022/07/16 01:17:35;;;;;;;15.00;4.38;;;;;;;14.54;81.95;101355.84;5031941;28;20013;-72
2022/07/16 01:20:01;;;;;;;11.13;4.18;;;;;;;14.49;81.66;101358.25;5031802;28;20166;-72
2022/07/16 01:22:27;;;;;;;11.13;3.78;;;;;;;14.43;81.08;101362.47;5031878;28;20488;-72
2022/07/16 01:24:53;;;;;;;8.93;4.47;;;;;;;14.39;81.83;101344.75;5038936;28;20128;-72
2022/07/16 01:27:19;;;;;;;9.40;4.40;;;;;;;14.51;82.49;101350.75;5032517;28;20021;-72
2022/07/16 01:29:45;;;;;;;12.90;5.15;;;;;;;14.38;83.19;101352.09;5038045;28;20033;-72
2022/07/16 01:32:11;;;;;;;13.13;5.43;;;;;;;14.31;83.56;101350.22;5032955;28;20021;-72
2022/07/16 01:34:37;;;;;;;8.70;5.60;;;;;;;14.32;84.05;101352.78;5037284;28;20022;-71
2022/07/16 01:37:05;;;;;;;17.50;6.57;;;;;;;14.39;84.42;101342.88;5032624;28;20032;-72
2022/07/16 01:39:34;;;;;;;17.30;6.88;;;;;;;14.26;85.09;101345.28;5035074;28;20013;-70
2022/07/16 01:42:02;;;;;;;14.75;7.05;;;;;;;14.30;84.74;101349.38;5030602;28;20037;-69
2022/07/16 01:44:29;;;;;;;12.35;5.68;;;;;;;14.33;84.98;101337.28;5031782;28;20021;-69
2022/07/16 01:46:56;;;;;;;14.80;7.13;;;;;;;14.30;85.20;101330.31;5035834;28;20036;-69
2022/07/16 01:49:22;;;;;;;17.70;7.75;;;;;;;14.22;86.15;101330.31;5039767;28;20018;-69
2022/07/16 01:51:48;;;;;;;11.23;7.07;;;;;;;14.28;86.41;101340.53;5032113;28;20028;-70
2022/07/16 01:54:14;;;;;;;15.15;7.50;;;;;;;14.28;85.95;101329.63;5042585;28;20033;-72
2022/07/16 01:56:40;;;;;;;12.57;7.00;;;;;;;14.17;86.27;101329.97;5038205;28;20116;-70
2022/07/16 01:59:06;;;;;;;11.90;7.40;;;;;;;14.08;86.85;101333.69;5037234;28;20112;-67
2022/07/16 02:01:31;;;;;;;13.27;7.75;;;;;;;14.16;86.60;101331.00;5039097;28;20389;-68
2022/07/16 02:03:57;;;;;;;19.02;7.28;;;;;;;14.13;86.43;101331.31;5043400;28;20091;-69
2022/07/16 02:06:23;;;;;;;11.80;7.18;;;;;;;14.14;86.65;101327.56;5036020;28;20029;-68
2022/07/16 02:08:48;;;;;;;19.13;8.00;;;;;;;14.21;86.32;101323.16;5031869;28;20056;-69
2022/07/16 02:11:14;;;;;;;16.52;7.90;;;;;;;14.17;86.95;101321.81;5032275;28;20037;-69
2022/07/16 02:13:40;;;;;;;17.25;7.90;;;;;;;14.14;86.79;101349.38;5037621;28;20025;-68
2022/07/16 02:16:06;;;;;;;9.65;6.53;;;;;;;14.11;86.71;101317.03;5033786;28;20029;-69
2022/07/16 02:18:31;;;;;;;11.65;6.40;;;;;;;14.16;86.98;101303.78;5041214;28;20017;-70
2022/07/16 02:20:57;;;;;;;15.05;6.10;;;;;;;14.20;86.36;101321.44;5039472;28;20051;-69
2022/07/16 02:23:23;;;;;;;13.20;6.30;;;;;;;14.24;86.04;101333.72;5036954;28;20057;-69
2022/07/16 02:25:48;;;;;;;13.02;6.47;;;;;;;14.30;86.09;101322.13;5041977;28;20032;-70
2022/07/16 02:28:14;;;;;;;10.48;7.05;;;;;;;14.33;86.76;101329.94;5032896;28;20029;-70
2022/07/16 02:30:42;;;;;;;17.58;7.93;;;;;;;14.19;86.95;101327.91;5035417;28;20025;-70
2022/07/16 02:33:09;;;;;;;16.90;7.25;;;;;;;14.24;86.99;101339.16;5031662;28;20017;-70
2022/07/16 02:35:36;;;;;;;15.80;7.97;;;;;;;14.29;87.06;101320.44;5035484;28;20164;-70
2022/07/16 02:38:02;;;;;;;15.77;7.28;;;;;;;14.27;86.88;101322.47;5040189;28;20044;-69
2022/07/16 02:40:28;;;;;;;18.27;8.88;;;;;;;14.33;87.35;101327.22;5032637;28;20492;-68
2022/07/16 02:42:54;;;;;;;13.85;8.40;;;;;;;14.46;86.55;101320.41;5028762;28;20108;-69
2022/07/16 02:45:20;;;;;;;14.15;6.93;;;;;;;14.37;86.88;101330.47;5038402;28;20116;-69
2022/07/16 02:47:45;;;;;;;12.40;6.88;;;;;;;14.38;87.02;101334.91;5034253;28;20386;-69
2022/07/16 02:50:10;;;;;;;16.70;6.97;;;;;;;14.46;86.96;101337.63;5031403;28;20022;-70
2022/07/16 02:52:36;;;;;;;14.18;6.25;;;;;;;14.51;86.98;101339.84;5030723;28;20036;-67
2022/07/16 02:55:03;;;;;;;11.45;5.47;;;;;;;14.52;86.83;101347.00;5031013;28;20052;-69
2022/07/16 02:57:29;;;;;;;13.50;6.47;;;;;;;14.40;87.41;101341.88;5032478;28;20482;-68
2022/07/16 02:59:54;;;;;;;11.00;6.53;;;;;;;14.55;87.37;101352.13;5033386;28;20025;-70
2022/07/16 03:02:20;;;;;;;11.38;6.13;;;;;;;14.47;87.63;101349.38;5032810;28;20151;-70
2022/07/16 03:04:45;;;;;;;15.38;5.30;;;;;;;14.44;87.15;101344.25;5032080;28;20088;-70
2022/07/16 03:07:11;;;;;;;7.65;4.78;;;;;;;14.58;86.87;101340.84;5035008;28;20029;-69
2022/07/16 03:09:36;;;;;;;9.82;4.53;;;;;;;14.67;86.70;101350.75;5032475;28;20057;-70
2022/07/16 03:12:02;;;;;;;7.93;4.40;;;;;;;14.73;86.13;101355.47;5031901;28;20048;-70
2022/07/16 03:14:27;;;;;;;10.07;4.03;;;;;;;14.70;85.79;101354.97;5031264;28;20099;-70
2022/07/16 03:16:52;;;;;;;12.00;4.00;;;;;;;14.75;85.30;101353.44;5036057;28;20036;-70
2022/07/16 03:19:18;;;;;;;6.22;3.70;;;;;;;14.79;85.38;101354.78;5035900;28;20018;-71
2022/07/16 03:21:43;;;;;;;8.50;3.83;;;;;;;14.81;85.43;101363.66;5029293;28;20089;-70
2022/07/16 03:24:09;;;;;;;9.90;3.40;;;;;;;14.77;84.97;101373.19;5032231;28;20041;-70
2022/07/16 03:26:34;;;;;;;7.35;3.40;;;;;;;14.63;85.99;101371.19;5034210;28;20099;-71
2022/07/16 03:28:59;;;;;;;6.88;3.47;;;;;;;14.66;85.74;101382.56;5030468;28;20025;-71
2022/07/16 03:31:25;;;;;;;7.78;3.50;;;;;;;14.72;85.27;101377.47;5034701;28;20029;-69
2022/07/16 03:33:50;;;;;;;9.50;3.60;;;;;;;14.69;85.04;101381.38;5038801;28;20074;-70
2022/07/16 03:36:16;;;;;;;5.80;3.33;;;;;;;14.74;84.58;101384.47;5033695;28;20048;-71
2022/07/16 03:41:26;;;;;;;9.50;3.88;;;;;;;14.58;85.10;101395.38;5024266;28;20063;-71
2022/07/16 03:43:51;;;;;;;12.20;3.47;;;;;;;14.54;85.44;101394.88;5031875;28;20037;-71
2022/07/16 03:46:17;;;;;;;9.80;3.58;;;;;;;14.43;86.00;101397.91;5035803;28;20021;-72
2022/07/16 03:48:43;;;;;;;13.07;3.70;;;;;;;14.52;85.50;101396.03;5030246;28;20532;-71
2022/07/16 03:51:08;;;;;;;8.25;3.65;;;;;;;14.59;85.50;101402.50;5024791;28;20052;-71
2022/07/16 03:53:35;;;;;;;7.38;3.67;;;;;;;14.54;85.46;101394.00;5039693;28;20021;-72
2022/07/16 03:56:00;;;;;;;8.75;3.45;;;;;;;14.56;85.12;101402.88;5029856;28;20021;-71
2022/07/16 03:58:26;;;;;;;8.43;3.42;;;;;;;14.53;85.29;101403.19;5034119;28;20089;-71
2022/07/16 04:00:52;;;;;;;8.10;3.72;;;;;;;14.45;85.55;101414.06;5029743;28;20104;-71
2022/07/16 04:03:18;;;;;;;6.53;2.97;;;;;;;14.38;85.69;101412.03;5033722;28;20071;-72
2022/07/16 04:05:44;;;;;;;5.45;2.58;;;;;;;14.35;85.65;101412.38;5033978;28;20025;-70
2022/07/16 04:08:09;;;;;;;6.47;2.88;;;;;;;14.48;85.77;101413.78;5030603;28;20024;-69
2022/07/16 04:10:35;;;;;;;11.65;3.17;;;;;;;14.43;84.63;101414.25;5034107;28;20478;-70
2022/07/16 04:13:00;;;;;;;10.85;4.30;;;;;;;14.39;85.01;101419.16;5034912;28;20055;-69
2022/07/16 04:15:26;;;;;;;9.07;2.65;;;;;;;14.40;84.72;101437.22;5031271;28;20024;-69
2022/07/16 04:17:51;;;;;;;14.75;2.78;;;;;;;14.51;83.47;101427.06;5034852;28;20108;-69
2022/07/16 04:20:17;;;;;;;8.93;2.92;;;;;;;14.49;84.26;101420.94;5033201;28;20029;-70
2022/07/16 04:22:42;;;;;;;12.25;3.35;;;;;;;14.38;83.95;101433.81;5037442;28;20060;-71
2022/07/16 04:25:08;;;;;;;9.23;2.95;;;;;;;14.58;83.87;101438.97;5028894;28;20052;-72
2022/07/16 04:27:33;;;;;;;10.85;3.38;;;;;;;14.43;84.03;101440.66;5029603;28;20040;-70
2022/07/16 04:29:58;;;;;;;10.82;3.40;;;;;;;14.59;83.50;101429.75;5038295;28;20115;-70
2022/07/16 04:32:24;;;;;;;10.45;3.13;;;;;;;14.57;83.56;101445.44;5028378;28;20068;-71
2022/07/16 04:34:49;;;;;;;9.05;2.83;;;;;;;14.40;83.62;101448.13;5029870;28;20105;-70
2022/07/16 04:37:14;;;;;;;18.92;2.97;;;;;;;14.45;83.97;101450.34;5035364;28;20022;-70
2022/07/16 04:39:40;;;;;;;9.25;2.67;;;;;;;14.46;82.66;101445.75;5029519;28;20017;-70
2022/07/16 04:42:05;;;;;;;7.57;2.53;;;;;;;14.46;82.44;101451.19;5034979;28;20567;-71
2022/07/16 04:44:31;;;;;;;11.43;3.22;;;;;;;14.38;83.06;101444.72;5034304;28;20024;-71
2022/07/16 04:46:56;;;;;;;14.23;2.72;;;;;;;14.25;83.29;101449.81;5038307;28;20044;-70
2022/07/16 04:49:22;;;;;;;5.05;2.92;;;;;;;14.39;83.54;101457.31;5039098;28;20422;-70
2022/07/16 04:51:47;;;;;;;15.48;2.75;;;;;;;14.40;83.83;101453.56;5035100;28;20116;-71
2022/07/16 04:54:12;;;;;;;10.35;2.33;;;;;;;14.72;82.43;101457.34;5032367;28;20414;-70
2022/07/16 04:56:38;;;;;;;10.63;3.05;;;;;;;14.60;81.24;101458.72;5033630;28;20475;-69
2022/07/16 04:59:03;;;;;;;8.07;2.50;;;;;;;14.72;82.13;101462.81;5031890;28;20033;-70
2022/07/16 05:01:29;;;;;;;9.93;3.28;;;;;;;14.80;80.77;101465.56;5035991;28;20045;-70
2022/07/16 05:03:54;;;;;;;12.60;2.75;;;;;;;14.64;83.19;101465.53;5033056;28;20029;-71
2022/07/16 05:06:19;;;;;;;9.68;2.97;;;;;;;14.84;82.70;101472.34;5032168;28;20108;-70
2022/07/16 05:08:45;;;;;;;10.70;2.78;;;;;;;14.84;81.20;101469.63;5033184;28;20026;-70
2022/07/16 05:11:10;;;;;;;13.95;3.22;;;;;;;14.83;81.74;101476.09;5034932;28;20075;-70
2022/07/16 05:13:36;;;;;;;10.00;3.03;;;;;;;14.82;81.11;101485.31;5032963;28;20036;-70
2022/07/16 05:16:02;;;;;;;11.15;2.67;;;;;;;14.69;81.53;101487.69;5032911;28;20028;-70
2022/07/16 05:18:28;;;;;;;9.02;3.05;;;;;;;15.06;81.12;101494.47;5036715;28;20047;-71
2022/07/16 05:20:54;;;;;;;11.98;3.10;;;;;;;14.79;81.03;101487.50;5032176;28;20021;-70
2022/07/16 05:23:19;;;;;;;9.52;3.20;;;;;;;14.86;80.48;101497.56;5034951;28;20115;-71
2022/07/16 05:25:45;;;;;;;12.18;2.80;;;;;;;14.97;80.43;101498.25;5034110;28;20053;-71
2022/07/16 05:28:10;;;;;;;16.25;2.65;;;;;;;14.91;80.52;101499.78;5030968;28;20033;-70
2022/07/16 05:30:36;;;;;;;11.40;3.20;;;;;;;15.01;79.45;101505.06;5031558;28;20021;-71
2022/07/16 05:33:20;;;;;;;8.95;2.50;;;;;;;15.07;79.68;101501.66;5036111;28;20025;-70
2022/07/16 05:35:46;;;;;;;17.50;2.45;;;;;;;15.09;78.82;101510.50;5027667;28;20033;-71
2022/07/16 05:38:11;;;;;;;7.93;2.50;;;;;;;15.35;78.68;101508.41;5036594;28;20096;-70
2022/07/16 05:40:37;;;;;;;11.38;2.55;;;;;;;15.29;77.74;101514.56;5036636;28;20051;-71
2022/07/16 05:43:03;;;;;;;11.95;2.60;;;;;;;14.95;77.64;101517.50;5034876;28;20044;-71
2022/07/16 05:45:28;;;;;;;11.32;2.92;;;;;;;14.84;78.09;101526.88;5029932;28;20116;-71
2022/07/16 05:47:54;;;;;;;10.55;2.38;;;;;;;14.73;77.66;101524.47;5031503;28;20029;-72
2022/07/16 05:50:19;;;;;;;9.52;2.63;;;;;;;14.62;77.53;101522.94;5040358;28;20089;-71
2022/07/16 05:52:44;;;;;;;10.23;2.13;;;;;;;14.73;76.78;101518.16;5037829;28;20501;-71
2022/07/16 05:55:10;;;;;;;15.27;2.88;;;;;;;14.77;77.35;101536.75;5035132;28;20413;-71
2022/07/16 05:57:35;;;;;;;13.65;2.72;;;;;;;14.86;76.13;101530.28;5031901;28;20032;-71
2022/07/16 06:00:03;;;;;;;9.60;2.15;;;;;;;14.92;74.86;101543.22;5030873;28;20486;-71
2022/07/16 06:02:29;;;;;;;9.23;2.00;;;;;;;15.12;75.73;101540.16;5031079;28;20104;-71
2022/07/16 06:04:54;;;;;;;9.07;2.13;;;;;;;15.14;75.58;101540.84;5029941;28;20132;-71
2022/07/16 06:07:19;;;;;;;10.82;2.50;;;;;;;15.32;75.08;101552.44;5029879;28;20025;-71
2022/07/16 06:09:44;;;;;;;14.00;2.25;;;;;;;15.13;74.69;101547.34;5033543;28;20025;-71
2022/07/16 06:12:10;;;;;;;6.50;1.83;;;;;;;15.18;73.34;101550.38;5039327;28;20029;-71
2022/07/16 06:14:35;;;;;;;9.45;1.67;;;;;;;15.25;73.97;101559.56;5034321;28;20051;-71
2022/07/16 06:17:00;;;;;;;14.38;2.35;;;;;;;15.07;73.76;101564.38;5035877;28;20132;-71
2022/07/16 06:19:26;;;;;;;10.15;2.13;;;;;;;15.12;74.53;101567.44;5032026;28;20021;-71
2022/07/16 06:21:51;;;;;;;18.27;2.58;;;;;;;15.41;72.37;101573.22;5029127;28;20451;-71
2022/07/16 06:24:16;;;;;;;9.88;2.25;;;;;;;15.12;73.62;101578.34;5033374;28;20060;-71
2022/07/16 06:26:46;;;;;;;8.23;2.10;;;;;;;15.06;73.55;101574.44;5041248;28;20344;-71
2022/07/16 06:29:14;;;;;;;9.77;2.08;;;;;;;15.17;72.92;101570.50;5029480;28;20025;-71
2022/07/16 06:31:39;;;;;;;8.90;1.80;;;;;;;15.01;73.08;101575.97;5032584;28;20398;-71
2022/07/16 06:34:04;;;;;;;15.60;2.40;;;;;;;15.02;71.68;101577.69;5035310;28;20074;-71
2022/07/16 06:36:30;;;;;;;8.43;1.85;;;;;;;15.07;71.11;101580.75;5038244;28;20062;-71
2022/07/16 06:38:55;;;;;;;14.40;2.10;;;;;;;15.27;69.91;101582.09;5033310;28;20029;-71
2022/07/16 06:41:20;;;;;;;7.13;1.77;;;;;;;15.53;69.84;101586.50;5035174;28;20025;-71
2022/07/16 06:43:46;;;;;;;12.88;2.00;;;;;;;15.56;68.42;101591.63;5028839;28;20056;-71
2022/07/16 06:46:11;;;;;;;7.93;1.88;;;;;;;15.49;66.41;101586.00;5028404;28;20028;-71
2022/07/16 06:48:36;;;;;;;10.10;1.95;;;;;;;15.37;67.68;101593.69;5029005;28;20030;-71
2022/07/16 06:51:02;;;;;;;11.88;1.73;;;;;;;15.56;66.08;101597.06;5030831;28;20081;-71
2022/07/16 06:53:28;;;;;;;7.00;1.90;;;;;;;15.65;65.97;101596.94;5028849;28;20079;-71
2022/07/16 06:55:53;;;;;;;11.98;1.75;;;;;;;15.89;64.93;101601.47;5029306;28;20028;-72
2022/07/16 06:58:18;;;;;;;18.95;2.30;;;;;;;15.47;64.59;101605.28;5029419;28;20028;-70
2022/07/16 07:00:44;;;;;;;8.90;1.92;;;;;;;15.46;63.56;101617.22;5012372;28;20100;-70
2022/07/16 07:03:11;;;;;;;11.43;2.83;;;;;;;15.77;64.06;101611.03;5026119;28;20024;-69
2022/07/16 07:05:37;;;;;;;18.65;2.88;;;;;;;16.06;63.48;101615.94;5029012;28;20024;-70
2022/07/16 07:08:03;;;;;;;11.30;2.45;;;;;;;16.09;61.48;101614.72;5029063;28;20026;-69
2022/07/16 07:10:28;;;;;;;13.38;2.15;;;;;;;16.23;61.01;101616.69;5028276;28;20087;-71
2022/07/16 07:12:53;;;;;;;11.65;2.20;;;;;;;16.20;61.11;101611.59;5029210;28;20052;-70
2022/07/16 07:15:19;;;;;;;10.98;1.92;;;;;;;16.24;60.47;101621.16;5037574;28;20040;-70
2022/07/16 07:17:45;;;;;;;6.53;1.80;;;;;;;15.88;58.90;101612.56;5035792;28;20015;-70
2022/07/16 07:20:11;;;;;;;12.30;2.20;;;;;;;15.81;60.33;101609.69;5028790;28;20025;-70
2022/07/16 07:22:36;;;;;;;13.60;1.90;;;;;;;15.94;60.69;101626.38;5028697;28;20029;-71
2022/07/16 07:25:02;;;;;;;15.18;2.20;;;;;;;16.35;59.02;101619.91;5033432;28;20028;-71
2022/07/16 07:27:28;;;;;;;11.27;2.33;;;;;;;16.68;57.63;101620.56;5033621;28;20091;-71
2022/07/16 07:29:53;;;;;;;10.73;1.90;;;;;;;16.31;58.73;101633.09;5028029;28;20021;-70
2022/07/16 07:32:18;;;;;;;14.10;2.40;;;;;;;16.36;56.57;101633.38;5028216;28;20509;-71
2022/07/16 07:34:44;;;;;;;11.60;1.92;;;;;;;16.31;57.33;101652.22;5030057;28;20052;-71
2022/07/16 07:37:09;;;;;;;16.83;2.10;;;;;;;16.15;57.11;101635.88;5029134;28;20029;-70
2022/07/16 07:39:35;;;;;;;14.07;1.52;;;;;;;16.42;57.34;101646.34;5029931;28;20017;-71
2022/07/16 07:42:01;;;;;;;16.88;1.85;;;;;;;16.35;56.81;101641.75;5028657;28;20041;-71
2022/07/16 07:44:26;;;;;;;15.63;2.03;;;;;;;16.13;57.15;101648.84;5002519;28;20017;-71
2022/07/16 07:46:52;;;;;;;12.80;1.67;;;;;;;16.43;56.85;101648.06;5030628;28;20049;-71
2022/07/16 08:01:08;;;;;;;11.95;2.25;;;;;;;17.34;54.57;101655.56;5085929;27;20482;-73
2022/07/16 08:03:33;;;;;;;12.75;2.60;;;;;;;17.46;52.96;101664.16;5110814;27;20068;-72
2022/07/16 08:05:59;;;;;;;7.90;1.92;;;;;;;17.34;53.43;101665.63;5083623;28;20024;-72
2022/07/16 08:08:24;;;;;;;13.23;2.20;;;;;;;17.26;53.73;101668.44;5079807;28;20024;-72
2022/07/16 08:10:50;;;;;;;18.70;3.10;;;;;;;17.00;54.20;101675.13;5080439;28;20036;-72
2022/07/16 08:13:16;;;;;;;9.10;2.08;;;;;;;16.85;54.93;101682.41;5079874;28;20020;-73
2022/07/16 08:15:41;;;;;;;11.68;2.42;;;;;;;16.39;53.92;101682.25;5080330;28;20054;-73
2022/07/16 08:18:07;;;;;;;11.65;2.35;;;;;;;16.75;54.02;101676.28;5079619;28;20028;-72
2022/07/16 08:20:32;;;;;;;12.77;2.40;;;;;;;16.94;54.05;101670.34;5080038;28;20017;-72
2022/07/16 08:22:57;;;;;;;22.13;2.10;;;;;;;17.21;53.52;101676.34;5080299;28;20024;-72
2022/07/16 08:28:07;;;;;;;4.88;1.60;;;;;;;17.37;52.70;101673.50;5074915;28;20020;-70
2022/07/16 08:30:32;;;;;;;14.32;1.88;;;;;;;17.53;52.18;101670.59;5077680;28;20378;-69
2022/07/16 08:32:58;;;;;;;14.38;2.20;;;;;;;17.73;51.09;101681.06;5090775;28;20031;-70
2022/07/16 08:35:23;;;;;;;7.10;1.60;;;;;;;18.20;49.92;101683.53;5079354;28;20099;-69
2022/07/16 08:37:49;;;;;;;12.80;1.83;;;;;;;18.04;48.25;101670.81;5078482;28;20036;-69
2022/07/16 08:40:17;;;;;;;14.65;1.90;;;;;;;17.44;47.86;101682.66;5073499;28;20016;-71
2022/07/16 08:42:43;;;;;;;9.55;1.45;;;;;;;17.52;48.58;101682.59;5079628;28;20025;-72
2022/07/16 08:45:10;;;;;;;11.60;1.88;;;;;;;18.34;47.62;101679.91;5081292;28;20027;-70
2022/07/16 08:47:36;;;;;;;11.50;1.83;;;;;;;18.35;46.59;101672.53;5079346;28;20029;-70
2022/07/16 08:50:07;;;;;;;10.13;1.80;;;;;;;18.24;45.77;101678.50;5078882;28;20027;-70
2022/07/16 08:52:33;;;;;;;10.43;2.58;;;;;;;17.95;47.16;101685.66;5079767;28;20078;-70
2022/07/16 08:54:58;;;;;;;7.93;1.73;;;;;;;18.11;46.02;101684.63;5079050;28;20059;-72
2022/07/16 08:57:24;;;;;;;7.00;1.75;;;;;;;17.92;47.51;101686.03;5083750;28;20019;-70
2022/07/16 08:59:51;;;;;;;11.20;2.55;;;;;;;17.91;47.96;101700.75;5081005;28;20077;-70
2022/07/16 09:02:17;;;;;;;7.55;2.05;;;;;;;17.38;48.27;101704.44;5072682;28;20029;-70
2022/07/16 09:04:43;;;;;;;8.38;1.58;;;;;;;17.46;49.48;101702.50;5065038;28;20035;-70
2022/07/16 09:07:12;;;;;;;8.18;1.80;;;;;;;17.25;49.75;101721.47;5066209;28;20024;-72
2022/07/16 09:09:38;;;;;;;7.95;1.70;;;;;;;17.05;50.21;101721.94;5065090;28;20032;-70
2022/07/16 09:12:04;;;;;;;16.30;2.63;;;;;;;16.92;51.28;101721.69;5075167;28;20038;-70
2022/07/16 09:14:29;;;;;;;6.43;1.80;;;;;;;17.19;51.04;101724.94;5062814;28;20032;-71
2022/07/16 09:16:54;;;;;;;12.63;2.17;;;;;;;16.93;51.11;101734.31;5064769;28;20016;-70
2022/07/16 09:19:28;;;;;;;12.20;1.77;;;;;;;17.50;50.48;101731.22;5064674;28;20016;-70
2022/07/16 09:22:10;;;;;;;18.95;2.13;;;;;;;18.02;48.31;101735.09;5068210;28;20016;-70
2022/07/16 09:24:44;;;;;;;9.18;2.25;;;;;;;18.31;47.26;101746.09;5062706;28;20025;-70
2022/07/16 09:27:27;;;;;;;11.88;1.73;;;;;;;18.05;47.18;101724.59;5061937;28;20162;-70
2022/07/16 09:29:58;;;;;;;4.95;1.50;;;;;;;17.90;46.77;101737.44;5062634;28;20099;-70
2022/07/16 09:32:39;;;;;;;14.77;2.05;;;;;;;17.73;46.16;101746.81;5061542;28;20111;-71
2022/07/16 09:35:11;;;;;;;7.03;2.00;;;;;;;17.69;45.97;101740.00;5062480;28;20029;-71
2022/07/16 09:37:51;;;;;;;17.30;2.28;;;;;;;17.89;46.34;101741.22;5069374;28;20069;-70
2022/07/16 09:40:40;;;;;;;11.68;2.15;;;;;;;18.18;46.06;101738.50;5056779;28;20028;-70
2022/07/16 09:43:12;;;;;;;7.85;1.80;;;;;;;18.79;45.28;101738.38;5062445;28;20043;-71
2022/07/16 09:45:41;;;;;;;17.52;2.35;;;;;;;19.39;44.70;101752.78;5068489;28;20051;-71
2022/07/16 09:48:29;;;;;;;10.48;1.92;;;;;;;18.47;46.05;101761.53;5063681;28;20024;-71
2022/07/16 09:50:57;;;;;;;11.30;2.42;;;;;;;17.86;47.55;101755.25;5058088;28;20493;-70
2022/07/16 09:53:25;;;;;;;8.23;1.90;;;;;;;18.59;46.44;101743.56;5064770;28;20508;-70
2022/07/16 09:55:57;;;;;;;15.15;2.58;;;;;;;18.41;44.90;101745.81;5063800;28;20051;-70
2022/07/16 09:58:22;;;;;;;8.15;2.30;;;;;;;18.28;45.62;101764.81;5063720;28;20032;-72
2022/07/16 10:00:48;;;;;;;15.30;2.42;;;;;;;18.40;46.29;101766.91;5068733;28;20039;-71
2022/07/16 10:03:14;;;;;;;10.68;1.73;;;;;;;18.63;45.80;101733.88;5063001;28;20029;-72
2022/07/16 10:05:40;;;;;;;8.23;1.77;;;;;;;18.54;46.15;101762.47;5063505;28;20414;-71
2022/07/16 10:08:06;;;;;;;15.75;2.42;;;;;;;17.77;48.04;101764.59;5064609;28;20020;-71
2022/07/16 10:10:31;;;;;;;12.90;2.30;;;;;;;17.67;48.69;101764.81;5063289;28;20017;-71
2022/07/16 10:12:57;;;;;;;15.13;2.60;;;;;;;18.17;48.31;101777.94;5062640;28;20066;-71
2022/07/16 10:15:23;;;;;;;15.57;2.95;;;;;;;18.27;48.48;101785.06;5064684;28;20019;-71
2022/07/16 10:17:48;;;;;;;11.02;2.42;;;;;;;18.27;48.54;101785.06;5063182;28;21113;-71
2022/07/16 10:20:18;;;;;;;12.32;1.92;;;;;;;18.03;49.69;101781.50;5064713;28;20032;-71
2022/07/16 10:22:46;;;;;;;16.10;2.33;;;;;;;18.43;50.18;101776.63;5062705;28;20024;-71
2022/07/16 10:25:19;;;;;;;17.58;2.78;;;;;;;18.59;50.18;101787.44;5070450;28;20038;-71
2022/07/16 10:27:45;;;;;;;9.68;1.92;;;;;;;18.86;49.41;101793.34;5064823;28;20433;-71
2022/07/16 10:30:22;;;;;;;13.73;1.38;;;;;;;19.33;43.27;101772.78;5063642;28;20098;-70
2022/07/16 10:33:00;;;;;;;9.07;1.80;;;;;;;18.78;45.61;101785.19;5065105;28;20024;-70
2022/07/16 10:35:28;;;;;;;6.93;1.58;;;;;;;19.17;44.42;101791.22;5063226;28;20009;-71
2022/07/16 10:38:24;;;;;;;7.38;1.55;;;;;;;18.99;45.25;101796.25;5067921;28;20024;-71
2022/07/16 10:41:15;;;;;;;8.98;1.83;;;;;;;19.15;45.40;101796.03;5053018;28;20107;-71
2022/07/16 10:43:41;;;;;;;11.60;1.77;;;;;;;18.67;46.83;101800.25;5061202;28;20048;-71
2022/07/16 10:46:08;;;;;;;10.38;1.70;;;;;;;18.52;47.92;101808.44;5064634;28;20016;-70
2022/07/16 10:48:37;;;;;;;9.15;1.90;;;;;;;18.48;47.95;101814.47;5065474;28;20024;-72
2022/07/16 10:51:18;;;;;;;7.82;1.85;;;;;;;18.55;48.32;101812.69;5062117;28;20500;-72
2022/07/16 10:53:56;;;;;;;12.52;2.40;;;;;;;18.72;47.42;101829.88;5070328;28;20039;-73
2022/07/16 10:56:45;;;;;;;12.48;1.70;;;;;;;18.62;48.17;101825.47;5065931;28;20115;-71
2022/07/16 10:59:13;;;;;;;13.02;2.88;;;;;;;19.01;47.42;101829.84;5059133;28;20145;-71
2022/07/16 11:01:40;;;;;;;13.82;3.35;;;;;;;19.34;47.47;101823.94;5061707;28;20027;-70
2022/07/16 11:04:09;;;;;;;17.27;2.75;;;;;;;18.64;48.55;101844.47;5066953;28;20027;-71
2022/07/16 11:06:35;;;;;;;11.52;1.98;;;;;;;18.62;48.44;101830.94;5063364;28;20055;-71
2022/07/16 11:09:03;;;;;;;9.90;2.08;;;;;;;18.82;46.17;101813.94;5066525;28;20069;-70
2022/07/16 11:11:33;;;;;;;8.80;2.65;;;;;;;19.01;45.27;101824.34;5064824;28;20056;-70
2022/07/16 11:13:59;;;;;;;11.48;1.85;;;;;;;19.76;44.77;101824.03;5064259;28;20013;-71
2022/07/16 11:16:25;;;;;;;9.95;2.35;;;;;;;19.85;44.42;101834.88;5062445;28;20025;-70
2022/07/16 11:18:50;;;;;;;11.80;2.45;;;;;;;19.38;45.18;101833.50;5061718;28;20288;-71
2022/07/16 11:21:16;;;;;;;19.52;3.55;;;;;;;19.22;46.59;101821.66;5063420;28;20025;-72
2022/07/16 11:23:52;;;;;;;19.95;2.55;;;;;;;20.08;44.15;101832.78;5060064;28;20020;-70
2022/07/16 11:26:19;;;;;;;11.68;2.15;;;;;;;20.61;41.50;101838.75;5063000;28;20043;-71
2022/07/16 11:29:02;;;;;;;13.57;2.10;;;;;;;20.22;42.66;101837.38;5066753;28;20032;-70
2022/07/16 11:31:33;;;;;;;13.75;2.25;;;;;;;19.57;44.67;101829.28;5062199;28;20119;-70
2022/07/16 11:34:03;;;;;;;14.88;3.30;;;;;;;19.54;45.35;101849.72;5055698;28;20016;-70
2022/07/16 11:36:34;;;;;;;12.95;2.45;;;;;;;18.58;47.08;101851.59;5063252;28;20074;-71
2022/07/16 11:39:12;;;;;;;19.15;2.95;;;;;;;17.94;48.78;101880.41;5063209;28;20009;-70
2022/07/16 11:41:40;;;;;;;17.73;2.90;;;;;;;18.24;48.22;101867.66;5062066;28;20037;-70